sensor_id;sensor_type;location;lat;lon;timestamp;temperature;humidity
14095;DHT22;18096;48.142;16.290;2023-12-20T00:02:17;1.30;99.90
14095;DHT22;18096;48.142;16.290;2023-12-20T00:04:43;1.20;99.90
14095;DHT22;18096;48.142;16.290;2023-12-20T00:07:08;1.20;99.90
14095;DHT22;18096;48.142;16.290;2023-12-20T00:09:34;1.20;99.90
14095;DHT22;18096;48.142;16.290;2023-12-20T00:11:59;1.20;99.90
14095;DHT22;18096;48.142;16.290;2023-12-20T00:14:25;1.20;99.90
14095;DHT22;18096;48.142;16.290;2023-12-20T00:16:51;1.10;99.90
14095;DHT22;18096;48.142;16.290;2023-12-20T00:19:16;1.10;99.90
14095;DHT22;18096;48.142;16.290;2023-12-20T00:21:42;1.10;99.90
14095;DHT22;18096;48.142;16.290;2023-12-20T00:24:08;1.10;99.90
14095;DHT22;18096;48.142;16.290;2023-12-20T00:26:33;1.00;99.90
14095;DHT22;18096;48.142;16.290;2023-12-20T00:28:59;1.00;99.90
14095;DHT22;18096;48.142;16.290;2023-12-20T00:31:25;1.00;99.90
14095;DHT22;18096;48.142;16.290;2023-12-20T00:33:50;1.10;99.90
14095;DHT22;18096;48.142;16.290;2023-12-20T00:36:16;0.90;99.90
14095;DHT22;18096;48.142;16.290;2023-12-20T00:38:42;0.90;99.90
14095;DHT22;18096;48.142;16.290;2023-12-20T00:41:07;0.90;99.90
14095;DHT22;18096;48.142;16.290;2023-12-20T00:43:33;0.90;99.90
14095;DHT22;18096;48.142;16.290;2023-12-20T00:45:59;0.90;99.90
14095;DHT22;18096;48.142;16.290;2023-12-20T00:48:25;0.90;99.90
14095;DHT22;18096;48.142;16.290;2023-12-20T00:50:52;0.90;99.90
14095;DHT22;18096;48.142;16.290;2023-12-20T00:53:18;0.90;99.90
14095;DHT22;18096;48.142;16.290;2023-12-20T00:55:44;0.90;99.90
14095;DHT22;18096;48.142;16.290;2023-12-20T00:58:10;0.90;99.90
14095;DHT22;18096;48.142;16.290;2023-12-20T01:00:36;1.00;99.90
14095;DHT22;18096;48.142;16.290;2023-12-20T01:03:01;1.00;99.90
14095;DHT22;18096;48.142;16.290;2023-12-20T01:05:27;1.00;99.90
14095;DHT22;18096;48.142;16.290;2023-12-20T01:07:53;1.00;99.90
14095;DHT22;18096;48.142;16.290;2023-12-20T01:10:18;1.00;99.90
14095;DHT22;18096;48.142;16.290;2023-12-20T01:12:44;0.90;99.90
14095;DHT22;18096;48.142;16.290;2023-12-20T01:15:10;1.00;99.90
14095;DHT22;18096;48.142;16.290;2023-12-20T01:17:35;1.00;99.90
14095;DHT22;18096;48.142;16.290;2023-12-20T01:20:01;1.00;99.90
14095;DHT22;18096;48.142;16.290;2023-12-20T01:22:27;0.90;99.90
14095;DHT22;18096;48.142;16.290;2023-12-20T01:24:52;0.90;99.90
14095;DHT22;18096;48.142;16.290;2023-12-20T01:27:18;0.90;99.90
14095;DHT22;18096;48.142;16.290;2023-12-20T01:29:44;0.90;99.90
14095;DHT22;18096;48.142;16.290;2023-12-20T01:32:10;0.90;99.90
14095;DHT22;18096;48.142;16.290;2023-12-20T01:34:35;0.90;99.90
14095;DHT22;18096;48.142;16.290;2023-12-20T01:37:01;0.90;99.90
14095;DHT22;18096;48.142;16.290;2023-12-20T01:39:28;1.00;99.90
14095;DHT22;18096;48.142;16.290;2023-12-20T01:41:53;1.00;99.90
14095;DHT22;18096;48.142;16.290;2023-12-20T01:44:19;1.00;99.90
14095;DHT22;18096;48.142;16.290;2023-12-20T01:46:45;1.00;99.90
14095;DHT22;18096;48.142;16.290;2023-12-20T01:49:11;1.00;99.90
14095;DHT22;18096;48.142;16.290;2023-12-20T01:51:37;1.00;99.90
14095;DHT22;18096;48.142;16.290;2023-12-20T01:54:03;1.00;99.90
14095;DHT22;18096;48.142;16.290;2023-12-20T01:56:30;0.90;99.90
14095;DHT22;18096;48.142;16.290;2023-12-20T01:58:57;1.00;99.90
14095;DHT22;18096;48.142;16.290;2023-12-20T02:01:23;0.90;99.90
14095;DHT22;18096;48.142;16.290;2023-12-20T02:03:50;0.90;99.90
14095;DHT22;18096;48.142;16.290;2023-12-20T02:06:17;0.80;99.90
14095;DHT22;18096;48.142;16.290;2023-12-20T02:08:43;0.80;99.90
14095;DHT22;18096;48.142;16.290;2023-12-20T02:11:10;0.70;99.90
14095;DHT22;18096;48.142;16.290;2023-12-20T02:13:35;0.70;99.90
14095;DHT22;18096;48.142;16.290;2023-12-20T02:16:01;0.80;99.90
14095;DHT22;18096;48.142;16.290;2023-12-20T02:18:28;0.70;99.90
14095;DHT22;18096;48.142;16.290;2023-12-20T02:20:53;0.70;99.90
14095;DHT22;18096;48.142;16.290;2023-12-20T02:23:19;0.60;99.90
14095;DHT22;18096;48.142;16.290;2023-12-20T02:25:44;0.60;99.90
14095;DHT22;18096;48.142;16.290;2023-12-20T02:28:10;0.50;99.90
14095;DHT22;18096;48.142;16.290;2023-12-20T02:30:36;0.50;99.90
14095;DHT22;18096;48.142;16.290;2023-12-20T02:33:04;0.50;99.90
14095;DHT22;18096;48.142;16.290;2023-12-20T02:35:32;0.50;99.90
14095;DHT22;18096;48.142;16.290;2023-12-20T02:37:58;0.50;99.90
14095;DHT22;18096;48.142;16.290;2023-12-20T02:40:23;0.50;99.90
14095;DHT22;18096;48.142;16.290;2023-12-20T02:42:49;0.50;99.90
14095;DHT22;18096;48.142;16.290;2023-12-20T02:45:15;0.40;99.90
14095;DHT22;18096;48.142;16.290;2023-12-20T02:47:40;0.40;99.90
14095;DHT22;18096;48.142;16.290;2023-12-20T02:50:06;0.30;99.90
14095;DHT22;18096;48.142;16.290;2023-12-20T02:52:32;0.30;99.90
14095;DHT22;18096;48.142;16.290;2023-12-20T02:54:57;0.30;99.90
14095;DHT22;18096;48.142;16.290;2023-12-20T02:57:23;0.30;99.90
14095;DHT22;18096;48.142;16.290;2023-12-20T02:59:49;0.30;99.90
14095;DHT22;18096;48.142;16.290;2023-12-20T03:02:14;0.20;99.90
14095;DHT22;18096;48.142;16.290;2023-12-20T03:04:40;0.20;99.90
14095;DHT22;18096;48.142;16.290;2023-12-20T03:07:07;0.20;99.90
14095;DHT22;18096;48.142;16.290;2023-12-20T03:09:32;0.10;99.90
14095;DHT22;18096;48.142;16.290;2023-12-20T03:11:58;0.00;99.90
14095;DHT22;18096;48.142;16.290;2023-12-20T03:14:24;0.00;99.90
14095;DHT22;18096;48.142;16.290;2023-12-20T03:16:50;0.10;99.90
14095;DHT22;18096;48.142;16.290;2023-12-20T03:19:17;0.00;99.90
14095;DHT22;18096;48.142;16.290;2023-12-20T03:21:43;-0.10;99.90
14095;DHT22;18096;48.142;16.290;2023-12-20T03:24:08;-0.10;99.90
14095;DHT22;18096;48.142;16.290;2023-12-20T03:26:34;-0.10;99.90
14095;DHT22;18096;48.142;16.290;2023-12-20T03:28:59;-0.20;99.90
14095;DHT22;18096;48.142;16.290;2023-12-20T03:31:25;-0.20;99.90
14095;DHT22;18096;48.142;16.290;2023-12-20T03:33:51;-0.20;99.90
14095;DHT22;18096;48.142;16.290;2023-12-20T03:36:19;-0.20;99.90
14095;DHT22;18096;48.142;16.290;2023-12-20T03:38:44;-0.20;99.90
14095;DHT22;18096;48.142;16.290;2023-12-20T03:41:10;-0.20;99.90
14095;DHT22;18096;48.142;16.290;2023-12-20T03:43:36;-0.20;99.90
14095;DHT22;18096;48.142;16.290;2023-12-20T03:46:02;-0.20;99.90
14095;DHT22;18096;48.142;16.290;2023-12-20T03:48:30;-0.30;99.90
14095;DHT22;18096;48.142;16.290;2023-12-20T03:50:57;-0.40;99.90
14095;DHT22;18096;48.142;16.290;2023-12-20T03:53:22;-0.40;99.90
14095;DHT22;18096;48.142;16.290;2023-12-20T03:55:48;-0.40;99.90
14095;DHT22;18096;48.142;16.290;2023-12-20T03:58:14;-0.40;99.90
14095;DHT22;18096;48.142;16.290;2023-12-20T04:00:39;-0.40;99.90
14095;DHT22;18096;48.142;16.290;2023-12-20T04:03:05;-0.50;99.90
14095;DHT22;18096;48.142;16.290;2023-12-20T04:05:30;-0.50;99.90
14095;DHT22;18096;48.142;16.290;2023-12-20T04:07:56;-0.60;99.90
14095;DHT22;18096;48.142;16.290;2023-12-20T04:10:22;-0.60;99.90
14095;DHT22;18096;48.142;16.290;2023-12-20T04:12:47;-0.60;99.90
14095;DHT22;18096;48.142;16.290;2023-12-20T04:15:13;-0.60;99.90
14095;DHT22;18096;48.142;16.290;2023-12-20T04:17:38;-0.70;99.90
14095;DHT22;18096;48.142;16.290;2023-12-20T04:20:05;-0.60;99.90
14095;DHT22;18096;48.142;16.290;2023-12-20T04:22:30;-0.60;99.90
14095;DHT22;18096;48.142;16.290;2023-12-20T04:24:56;-0.60;99.90
14095;DHT22;18096;48.142;16.290;2023-12-20T04:27:22;-0.50;99.90
14095;DHT22;18096;48.142;16.290;2023-12-20T04:29:47;-0.50;99.90
14095;DHT22;18096;48.142;16.290;2023-12-20T04:32:13;-0.50;99.90
14095;DHT22;18096;48.142;16.290;2023-12-20T04:34:39;-0.50;99.90
14095;DHT22;18096;48.142;16.290;2023-12-20T04:37:05;-0.50;99.90
14095;DHT22;18096;48.142;16.290;2023-12-20T04:39:31;-0.50;99.90
14095;DHT22;18096;48.142;16.290;2023-12-20T04:41:56;-0.60;99.90
14095;DHT22;18096;48.142;16.290;2023-12-20T04:44:22;-0.50;99.90
14095;DHT22;18096;48.142;16.290;2023-12-20T04:46:48;-0.50;99.90
14095;DHT22;18096;48.142;16.290;2023-12-20T04:49:13;-0.50;99.90
14095;DHT22;18096;48.142;16.290;2023-12-20T04:51:39;-0.60;99.90
14095;DHT22;18096;48.142;16.290;2023-12-20T04:54:05;-0.50;99.90
14095;DHT22;18096;48.142;16.290;2023-12-20T04:56:30;-0.50;99.90
14095;DHT22;18096;48.142;16.290;2023-12-20T04:58:56;-0.50;99.90
14095;DHT22;18096;48.142;16.290;2023-12-20T05:01:22;-0.50;99.90
14095;DHT22;18096;48.142;16.290;2023-12-20T05:03:47;-0.50;99.90
14095;DHT22;18096;48.142;16.290;2023-12-20T05:06:13;-0.40;99.90
14095;DHT22;18096;48.142;16.290;2023-12-20T05:08:39;-0.40;99.90
14095;DHT22;18096;48.142;16.290;2023-12-20T05:11:04;-0.40;99.90
14095;DHT22;18096;48.142;16.290;2023-12-20T05:13:30;-0.20;99.90
14095;DHT22;18096;48.142;16.290;2023-12-20T05:15:56;0.20;99.90
14095;DHT22;18096;48.142;16.290;2023-12-20T05:18:21;0.60;99.90
14095;DHT22;18096;48.142;16.290;2023-12-20T05:20:49;1.00;99.90
14095;DHT22;18096;48.142;16.290;2023-12-20T05:23:14;1.60;99.90
14095;DHT22;18096;48.142;16.290;2023-12-20T05:25:40;2.00;99.90
14095;DHT22;18096;48.142;16.290;2023-12-20T05:28:06;2.00;99.90
14095;DHT22;18096;48.142;16.290;2023-12-20T05:30:32;2.00;99.90
14095;DHT22;18096;48.142;16.290;2023-12-20T05:32:57;1.70;99.90
14095;DHT22;18096;48.142;16.290;2023-12-20T05:35:23;1.60;99.90
14095;DHT22;18096;48.142;16.290;2023-12-20T05:37:49;1.50;99.90
14095;DHT22;18096;48.142;16.290;2023-12-20T05:40:15;1.50;99.90
14095;DHT22;18096;48.142;16.290;2023-12-20T05:42:40;1.50;99.90
14095;DHT22;18096;48.142;16.290;2023-12-20T05:45:06;1.50;99.90
14095;DHT22;18096;48.142;16.290;2023-12-20T05:47:32;1.50;99.90
14095;DHT22;18096;48.142;16.290;2023-12-20T05:49:58;1.50;99.90
14095;DHT22;18096;48.142;16.290;2023-12-20T05:52:24;1.60;99.90
14095;DHT22;18096;48.142;16.290;2023-12-20T05:54:49;1.90;99.90
14095;DHT22;18096;48.142;16.290;2023-12-20T05:57:15;2.30;99.90
14095;DHT22;18096;48.142;16.290;2023-12-20T05:59:40;2.70;99.90
14095;DHT22;18096;48.142;16.290;2023-12-20T06:02:06;3.00;99.90
14095;DHT22;18096;48.142;16.290;2023-12-20T06:04:32;3.40;99.90
14095;DHT22;18096;48.142;16.290;2023-12-20T06:06:58;3.70;99.90
14095;DHT22;18096;48.142;16.290;2023-12-20T06:09:26;4.00;99.90
14095;DHT22;18096;48.142;16.290;2023-12-20T06:11:52;4.30;99.90
14095;DHT22;18096;48.142;16.290;2023-12-20T06:14:17;4.60;99.90
14095;DHT22;18096;48.142;16.290;2023-12-20T06:16:43;4.80;99.90
14095;DHT22;18096;48.142;16.290;2023-12-20T06:19:08;5.00;99.90
14095;DHT22;18096;48.142;16.290;2023-12-20T06:21:34;5.20;99.90
14095;DHT22;18096;48.142;16.290;2023-12-20T06:24:00;5.40;99.90
14095;DHT22;18096;48.142;16.290;2023-12-20T06:26:25;5.50;99.90
14095;DHT22;18096;48.142;16.290;2023-12-20T06:28:51;5.80;99.90
14095;DHT22;18096;48.142;16.290;2023-12-20T06:31:16;5.80;99.90
14095;DHT22;18096;48.142;16.290;2023-12-20T06:33:43;6.00;99.90
14095;DHT22;18096;48.142;16.290;2023-12-20T06:36:12;6.10;99.90
14095;DHT22;18096;48.142;16.290;2023-12-20T06:38:39;6.20;99.90
14095;DHT22;18096;48.142;16.290;2023-12-20T06:41:04;6.30;99.90
14095;DHT22;18096;48.142;16.290;2023-12-20T06:43:31;6.30;99.90
14095;DHT22;18096;48.142;16.290;2023-12-20T06:45:57;6.40;99.90
14095;DHT22;18096;48.142;16.290;2023-12-20T06:48:23;6.50;99.90
14095;DHT22;18096;48.142;16.290;2023-12-20T06:50:49;6.60;99.90
14095;DHT22;18096;48.142;16.290;2023-12-20T06:53:15;6.70;99.90
14095;DHT22;18096;48.142;16.290;2023-12-20T06:55:40;6.70;99.90
14095;DHT22;18096;48.142;16.290;2023-12-20T06:58:06;6.80;99.90
14095;DHT22;18096;48.142;16.290;2023-12-20T07:00:32;6.90;99.90
14095;DHT22;18096;48.142;16.290;2023-12-20T07:02:58;6.90;99.90
14095;DHT22;18096;48.142;16.290;2023-12-20T07:05:24;7.00;99.90
14095;DHT22;18096;48.142;16.290;2023-12-20T07:07:50;7.00;99.90
14095;DHT22;18096;48.142;16.290;2023-12-20T07:10:15;7.00;99.90
14095;DHT22;18096;48.142;16.290;2023-12-20T07:12:41;7.10;99.90
14095;DHT22;18096;48.142;16.290;2023-12-20T07:15:07;7.10;99.90
14095;DHT22;18096;48.142;16.290;2023-12-20T07:17:33;7.20;99.90
14095;DHT22;18096;48.142;16.290;2023-12-20T07:19:59;7.20;99.90
14095;DHT22;18096;48.142;16.290;2023-12-20T07:22:33;7.20;99.90
14095;DHT22;18096;48.142;16.290;2023-12-20T07:25:00;7.20;99.90
14095;DHT22;18096;48.142;16.290;2023-12-20T07:27:26;7.20;99.90
14095;DHT22;18096;48.142;16.290;2023-12-20T07:29:52;7.20;99.90
14095;DHT22;18096;48.142;16.290;2023-12-20T07:32:18;7.30;99.90
14095;DHT22;18096;48.142;16.290;2023-12-20T07:34:44;7.30;99.90
14095;DHT22;18096;48.142;16.290;2023-12-20T07:37:10;7.30;99.90
14095;DHT22;18096;48.142;16.290;2023-12-20T07:39:37;7.40;99.90
14095;DHT22;18096;48.142;16.290;2023-12-20T07:42:03;7.40;99.90
14095;DHT22;18096;48.142;16.290;2023-12-20T07:44:29;7.40;99.90
14095;DHT22;18096;48.142;16.290;2023-12-20T07:46:54;7.40;99.90
14095;DHT22;18096;48.142;16.290;2023-12-20T07:49:20;7.40;99.90
14095;DHT22;18096;48.142;16.290;2023-12-20T07:51:45;7.40;99.90
14095;DHT22;18096;48.142;16.290;2023-12-20T07:54:11;7.50;99.90
14095;DHT22;18096;48.142;16.290;2023-12-20T07:56:37;7.50;99.90
14095;DHT22;18096;48.142;16.290;2023-12-20T07:59:02;7.50;99.90
14095;DHT22;18096;48.142;16.290;2023-12-20T08:01:28;7.50;99.90
14095;DHT22;18096;48.142;16.290;2023-12-20T08:03:53;7.60;99.90
14095;DHT22;18096;48.142;16.290;2023-12-20T08:06:21;7.50;99.90
14095;DHT22;18096;48.142;16.290;2023-12-20T08:08:46;7.60;99.90
14095;DHT22;18096;48.142;16.290;2023-12-20T08:11:12;7.60;99.90
14095;DHT22;18096;48.142;16.290;2023-12-20T08:13:38;7.60;99.90
14095;DHT22;18096;48.142;16.290;2023-12-20T08:16:03;7.60;99.90
14095;DHT22;18096;48.142;16.290;2023-12-20T08:18:29;7.60;99.90
14095;DHT22;18096;48.142;16.290;2023-12-20T08:20:55;7.60;99.90
14095;DHT22;18096;48.142;16.290;2023-12-20T08:23:21;7.60;99.90
14095;DHT22;18096;48.142;16.290;2023-12-20T08:25:46;7.60;99.90
14095;DHT22;18096;48.142;16.290;2023-12-20T08:28:13;7.50;99.90
14095;DHT22;18096;48.142;16.290;2023-12-20T08:30:39;7.50;99.90
14095;DHT22;18096;48.142;16.290;2023-12-20T08:33:05;7.50;99.90
14095;DHT22;18096;48.142;16.290;2023-12-20T08:35:33;7.50;99.90
14095;DHT22;18096;48.142;16.290;2023-12-20T08:37:58;7.60;99.90
14095;DHT22;18096;48.142;16.290;2023-12-20T08:40:24;7.60;99.90
14095;DHT22;18096;48.142;16.290;2023-12-20T08:42:50;7.60;99.90
14095;DHT22;18096;48.142;16.290;2023-12-20T08:45:15;7.60;99.90
14095;DHT22;18096;48.142;16.290;2023-12-20T08:47:41;7.60;99.90
14095;DHT22;18096;48.142;16.290;2023-12-20T08:50:07;7.60;99.90
14095;DHT22;18096;48.142;16.290;2023-12-20T08:52:33;7.60;99.90
14095;DHT22;18096;48.142;16.290;2023-12-20T08:54:58;7.60;99.90
14095;DHT22;18096;48.142;16.290;2023-12-20T08:57:24;7.60;99.90
14095;DHT22;18096;48.142;16.290;2023-12-20T08:59:50;7.60;99.90
14095;DHT22;18096;48.142;16.290;2023-12-20T09:02:17;7.60;99.90
14095;DHT22;18096;48.142;16.290;2023-12-20T09:04:42;7.60;99.90
14095;DHT22;18096;48.142;16.290;2023-12-20T09:07:24;7.60;99.90
14095;DHT22;18096;48.142;16.290;2023-12-20T09:09:50;7.60;99.90
14095;DHT22;18096;48.142;16.290;2023-12-20T09:12:18;7.60;99.90
14095;DHT22;18096;48.142;16.290;2023-12-20T09:14:45;7.60;99.90
14095;DHT22;18096;48.142;16.290;2023-12-20T09:17:10;7.60;99.90
14095;DHT22;18096;48.142;16.290;2023-12-20T09:19:37;7.60;99.90
14095;DHT22;18096;48.142;16.290;2023-12-20T09:22:03;7.60;99.90
14095;DHT22;18096;48.142;16.290;2023-12-20T09:24:30;7.60;99.90
14095;DHT22;18096;48.142;16.290;2023-12-20T09:26:56;7.60;99.90
14095;DHT22;18096;48.142;16.290;2023-12-20T09:29:21;7.60;99.90
14095;DHT22;18096;48.142;16.290;2023-12-20T09:31:47;7.60;99.90
14095;DHT22;18096;48.142;16.290;2023-12-20T09:34:15;7.60;99.90
14095;DHT22;18096;48.142;16.290;2023-12-20T09:36:41;7.60;99.90
14095;DHT22;18096;48.142;16.290;2023-12-20T09:39:15;7.60;99.90
14095;DHT22;18096;48.142;16.290;2023-12-20T09:41:45;7.60;99.90
14095;DHT22;18096;48.142;16.290;2023-12-20T09:44:16;7.60;99.90
14095;DHT22;18096;48.142;16.290;2023-12-20T09:46:47;7.60;99.90
14095;DHT22;18096;48.142;16.290;2023-12-20T09:49:17;7.50;99.90
14095;DHT22;18096;48.142;16.290;2023-12-20T09:51:46;7.50;99.90
14095;DHT22;18096;48.142;16.290;2023-12-20T09:54:16;7.50;99.90
14095;DHT22;18096;48.142;16.290;2023-12-20T09:56:42;7.50;99.90
14095;DHT22;18096;48.142;16.290;2023-12-20T09:59:07;7.40;99.90
14095;DHT22;18096;48.142;16.290;2023-12-20T10:01:34;7.40;99.90
14095;DHT22;18096;48.142;16.290;2023-12-20T10:04:01;7.30;99.90
14095;DHT22;18096;48.142;16.290;2023-12-20T10:06:28;7.30;99.90
14095;DHT22;18096;48.142;16.290;2023-12-20T10:08:54;7.30;99.90
14095;DHT22;18096;48.142;16.290;2023-12-20T10:11:19;7.20;99.90
14095;DHT22;18096;48.142;16.290;2023-12-20T10:13:48;7.20;99.90
14095;DHT22;18096;48.142;16.290;2023-12-20T10:16:13;7.10;99.90
14095;DHT22;18096;48.142;16.290;2023-12-20T10:18:39;7.00;99.90
14095;DHT22;18096;48.142;16.290;2023-12-20T10:21:06;7.00;99.90
14095;DHT22;18096;48.142;16.290;2023-12-20T10:23:32;7.00;99.90
14095;DHT22;18096;48.142;16.290;2023-12-20T10:26:01;6.90;99.90
14095;DHT22;18096;48.142;16.290;2023-12-20T10:28:28;6.90;99.90
14095;DHT22;18096;48.142;16.290;2023-12-20T10:30:58;6.90;99.90
14095;DHT22;18096;48.142;16.290;2023-12-20T10:33:28;6.90;99.90
14095;DHT22;18096;48.142;16.290;2023-12-20T10:35:59;6.90;99.90
14095;DHT22;18096;48.142;16.290;2023-12-20T10:38:25;6.90;99.90
14095;DHT22;18096;48.142;16.290;2023-12-20T10:40:54;7.00;99.90
14095;DHT22;18096;48.142;16.290;2023-12-20T10:43:23;7.00;99.90
14095;DHT22;18096;48.142;16.290;2023-12-20T10:45:51;7.00;99.90
14095;DHT22;18096;48.142;16.290;2023-12-20T10:48:18;7.00;99.90
14095;DHT22;18096;48.142;16.290;2023-12-20T10:50:44;7.00;99.90
14095;DHT22;18096;48.142;16.290;2023-12-20T10:53:10;7.00;99.90
14095;DHT22;18096;48.142;16.290;2023-12-20T10:55:37;6.90;99.90
14095;DHT22;18096;48.142;16.290;2023-12-20T10:58:09;7.10;99.90
14095;DHT22;18096;48.142;16.290;2023-12-20T11:00:45;7.10;99.90
14095;DHT22;18096;48.142;16.290;2023-12-20T11:03:13;7.00;99.90
14095;DHT22;18096;48.142;16.290;2023-12-20T11:08:49;7.10;99.90
14095;DHT22;18096;48.142;16.290;2023-12-20T11:11:30;7.20;99.90
14095;DHT22;18096;48.142;16.290;2023-12-20T11:14:08;7.20;99.90
14095;DHT22;18096;48.142;16.290;2023-12-20T11:16:38;7.20;99.90
14095;DHT22;18096;48.142;16.290;2023-12-20T11:19:07;7.30;99.90
14095;DHT22;18096;48.142;16.290;2023-12-20T11:21:32;7.30;99.90
14095;DHT22;18096;48.142;16.290;2023-12-20T11:23:59;7.30;99.90
14095;DHT22;18096;48.142;16.290;2023-12-20T11:26:29;7.30;99.90
14095;DHT22;18096;48.142;16.290;2023-12-20T11:31:56;7.40;99.90
14095;DHT22;18096;48.142;16.290;2023-12-20T11:34:22;7.40;99.90
14095;DHT22;18096;48.142;16.290;2023-12-20T11:37:00;7.50;99.90
14095;DHT22;18096;48.142;16.290;2023-12-20T11:39:27;7.50;99.90
14095;DHT22;18096;48.142;16.290;2023-12-20T11:41:56;7.50;99.90
14095;DHT22;18096;48.142;16.290;2023-12-20T11:44:23;7.50;99.90
14095;DHT22;18096;48.142;16.290;2023-12-20T11:46:49;7.60;99.90
14095;DHT22;18096;48.142;16.290;2023-12-20T11:49:14;7.60;99.90
14095;DHT22;18096;48.142;16.290;2023-12-20T11:51:44;7.60;99.90
14095;DHT22;18096;48.142;16.290;2023-12-20T11:54:09;7.70;99.90
14095;DHT22;18096;48.142;16.290;2023-12-20T11:56:36;7.70;99.90
14095;DHT22;18096;48.142;16.290;2023-12-20T11:59:02;7.70;99.90
14095;DHT22;18096;48.142;16.290;2023-12-20T12:01:28;7.80;99.90
14095;DHT22;18096;48.142;16.290;2023-12-20T12:04:06;7.80;99.90
14095;DHT22;18096;48.142;16.290;2023-12-20T12:06:32;7.80;99.90
14095;DHT22;18096;48.142;16.290;2023-12-20T12:08:58;7.80;99.90
14095;DHT22;18096;48.142;16.290;2023-12-20T12:11:24;7.80;99.90
14095;DHT22;18096;48.142;16.290;2023-12-20T12:13:50;7.90;99.90
14095;DHT22;18096;48.142;16.290;2023-12-20T12:16:20;7.90;99.90
14095;DHT22;18096;48.142;16.290;2023-12-20T12:18:46;7.90;99.90
14095;DHT22;18096;48.142;16.290;2023-12-20T12:21:19;7.90;99.90
14095;DHT22;18096;48.142;16.290;2023-12-20T12:23:46;8.00;99.90
14095;DHT22;18096;48.142;16.290;2023-12-20T12:26:11;8.00;99.90
14095;DHT22;18096;48.142;16.290;2023-12-20T12:28:40;8.00;99.90
14095;DHT22;18096;48.142;16.290;2023-12-20T12:31:06;8.00;99.90
14095;DHT22;18096;48.142;16.290;2023-12-20T12:33:32;8.00;99.90
14095;DHT22;18096;48.142;16.290;2023-12-20T12:35:58;8.10;99.90
14095;DHT22;18096;48.142;16.290;2023-12-20T12:38:25;8.10;99.90
14095;DHT22;18096;48.142;16.290;2023-12-20T12:40:51;8.10;99.90
14095;DHT22;18096;48.142;16.290;2023-12-20T12:43:18;8.10;99.90
14095;DHT22;18096;48.142;16.290;2023-12-20T12:45:44;8.10;99.90
14095;DHT22;18096;48.142;16.290;2023-12-20T12:48:10;8.10;99.90
14095;DHT22;18096;48.142;16.290;2023-12-20T12:50:36;8.10;99.90
14095;DHT22;18096;48.142;16.290;2023-12-20T12:53:01;8.10;99.90
14095;DHT22;18096;48.142;16.290;2023-12-20T12:55:28;8.10;99.90
14095;DHT22;18096;48.142;16.290;2023-12-20T12:57:54;8.00;99.90
14095;DHT22;18096;48.142;16.290;2023-12-20T13:00:20;8.00;99.90
14095;DHT22;18096;48.142;16.290;2023-12-20T13:02:45;8.00;99.90
14095;DHT22;18096;48.142;16.290;2023-12-20T13:05:11;8.00;99.90
14095;DHT22;18096;48.142;16.290;2023-12-20T13:07:37;7.90;99.90
14095;DHT22;18096;48.142;16.290;2023-12-20T13:10:03;7.90;99.90
14095;DHT22;18096;48.142;16.290;2023-12-20T13:12:29;7.90;99.90
14095;DHT22;18096;48.142;16.290;2023-12-20T13:14:55;7.90;99.90
14095;DHT22;18096;48.142;16.290;2023-12-20T13:17:21;7.90;99.90
14095;DHT22;18096;48.142;16.290;2023-12-20T13:19:46;7.90;99.90
14095;DHT22;18096;48.142;16.290;2023-12-20T13:22:12;7.90;99.90
14095;DHT22;18096;48.142;16.290;2023-12-20T13:24:37;7.80;99.90
14095;DHT22;18096;48.142;16.290;2023-12-20T13:27:03;7.80;99.90
14095;DHT22;18096;48.142;16.290;2023-12-20T13:29:29;7.80;99.90
14095;DHT22;18096;48.142;16.290;2023-12-20T13:31:55;7.90;99.90
14095;DHT22;18096;48.142;16.290;2023-12-20T13:34:20;7.90;99.90
14095;DHT22;18096;48.142;16.290;2023-12-20T13:36:46;7.90;99.90
14095;DHT22;18096;48.142;16.290;2023-12-20T13:39:13;7.80;99.90
14095;DHT22;18096;48.142;16.290;2023-12-20T13:41:39;7.80;99.90
14095;DHT22;18096;48.142;16.290;2023-12-20T13:44:05;7.80;99.90
14095;DHT22;18096;48.142;16.290;2023-12-20T13:46:31;7.70;99.90
14095;DHT22;18096;48.142;16.290;2023-12-20T13:48:57;7.70;99.90
14095;DHT22;18096;48.142;16.290;2023-12-20T13:51:22;7.70;99.90
14095;DHT22;18096;48.142;16.290;2023-12-20T13:53:48;7.70;99.90
14095;DHT22;18096;48.142;16.290;2023-12-20T13:56:15;7.70;99.90
14095;DHT22;18096;48.142;16.290;2023-12-20T13:58:40;7.70;99.90
14095;DHT22;18096;48.142;16.290;2023-12-20T14:01:10;7.70;99.90
14095;DHT22;18096;48.142;16.290;2023-12-20T14:03:36;7.70;99.90
14095;DHT22;18096;48.142;16.290;2023-12-20T14:06:02;7.60;99.90
14095;DHT22;18096;48.142;16.290;2023-12-20T14:08:27;7.60;99.90
14095;DHT22;18096;48.142;16.290;2023-12-20T14:10:53;7.60;99.90
14095;DHT22;18096;48.142;16.290;2023-12-20T14:13:19;7.60;99.90
14095;DHT22;18096;48.142;16.290;2023-12-20T14:15:44;7.60;99.90
14095;DHT22;18096;48.142;16.290;2023-12-20T14:18:10;7.60;99.90
14095;DHT22;18096;48.142;16.290;2023-12-20T14:20:37;7.60;99.90
14095;DHT22;18096;48.142;16.290;2023-12-20T14:23:05;7.50;99.90
14095;DHT22;18096;48.142;16.290;2023-12-20T14:25:30;7.40;99.90
14095;DHT22;18096;48.142;16.290;2023-12-20T14:27:59;7.50;99.90
14095;DHT22;18096;48.142;16.290;2023-12-20T14:30:25;7.40;99.90
14095;DHT22;18096;48.142;16.290;2023-12-20T14:32:51;7.40;99.90
14095;DHT22;18096;48.142;16.290;2023-12-20T14:35:16;7.40;99.90
14095;DHT22;18096;48.142;16.290;2023-12-20T14:37:42;7.40;99.90
14095;DHT22;18096;48.142;16.290;2023-12-20T14:40:08;7.30;99.90
14095;DHT22;18096;48.142;16.290;2023-12-20T14:42:41;7.40;99.90
14095;DHT22;18096;48.142;16.290;2023-12-20T14:45:07;7.40;99.90
14095;DHT22;18096;48.142;16.290;2023-12-20T14:47:33;7.40;99.90
14095;DHT22;18096;48.142;16.290;2023-12-20T14:49:59;7.30;99.90
14095;DHT22;18096;48.142;16.290;2023-12-20T14:52:24;7.40;99.90
14095;DHT22;18096;48.142;16.290;2023-12-20T14:54:50;7.40;99.90
14095;DHT22;18096;48.142;16.290;2023-12-20T14:57:15;7.40;99.90
14095;DHT22;18096;48.142;16.290;2023-12-20T14:59:41;7.40;99.90
14095;DHT22;18096;48.142;16.290;2023-12-20T15:02:09;7.40;99.90
14095;DHT22;18096;48.142;16.290;2023-12-20T15:04:34;7.40;99.90
14095;DHT22;18096;48.142;16.290;2023-12-20T15:07:00;7.40;99.90
14095;DHT22;18096;48.142;16.290;2023-12-20T15:09:26;7.40;99.90
14095;DHT22;18096;48.142;16.290;2023-12-20T15:11:53;7.40;99.90
14095;DHT22;18096;48.142;16.290;2023-12-20T15:14:18;7.30;99.90
14095;DHT22;18096;48.142;16.290;2023-12-20T15:16:47;7.40;99.90
14095;DHT22;18096;48.142;16.290;2023-12-20T15:19:13;7.40;99.90
14095;DHT22;18096;48.142;16.290;2023-12-20T15:21:39;7.30;99.90
14095;DHT22;18096;48.142;16.290;2023-12-20T15:24:09;7.30;99.90
14095;DHT22;18096;48.142;16.290;2023-12-20T15:26:42;7.40;99.90
14095;DHT22;18096;48.142;16.290;2023-12-20T15:29:09;7.40;99.90
14095;DHT22;18096;48.142;16.290;2023-12-20T15:31:36;7.40;99.90